Time;durP1;ratioP1;P1;durP2;ratioP2;P2;SDS_P1;SDS_P2;PMS_P1;PMS_P2;Temp;Humidity;BMP_temperature;BMP_pressure;BME280_temperature;BME280_humidity;BME280_pressure;Samples;Min_cycle;Max_cycle;Signal;HPM_P1;HPM_P2
2022/09/30 00:00:57;;;;;;;4.28;3.50;;;8.30;99.90;;;;;;4918902;29;20048;-78
2022/09/30 00:03:23;;;;;;;5.05;3.58;;;8.20;99.90;;;;;;4918925;29;20047;-78
2022/09/30 00:06:04;;;;;;;4.07;3.38;;;8.20;99.90;;;;;;4918628;29;20614;-78
2022/09/30 00:08:30;;;;;;;4.40;3.30;;;8.20;99.90;;;;;;4918042;29;20044;-78
2022/09/30 00:11:00;;;;;;;4.95;3.70;;;8.20;99.90;;;;;;4918313;29;20040;-78
2022/09/30 00:13:26;;;;;;;4.22;3.47;;;8.20;99.90;;;;;;4918588;29;20043;-78
2022/09/30 00:15:52;;;;;;;3.97;3.42;;;8.10;99.90;;;;;;4918457;29;20492;-79
2022/09/30 00:18:17;;;;;;;3.72;3.33;;;8.10;99.90;;;;;;4918159;29;20126;-79
2022/09/30 00:20:43;;;;;;;4.97;3.67;;;8.10;99.90;;;;;;4918928;29;20048;-78
2022/09/30 00:23:08;;;;;;;6.05;3.92;;;8.00;99.90;;;;;;4917594;29;20511;-78
2022/09/30 00:25:34;;;;;;;4.82;3.80;;;7.90;99.90;;;;;;4918198;29;20059;-78
2022/09/30 00:27:59;;;;;;;4.75;3.72;;;7.90;99.90;;;;;;4918435;29;20095;-79
2022/09/30 00:30:25;;;;;;;7.05;4.32;;;7.90;99.90;;;;;;4918318;29;20048;-79
2022/09/30 00:32:51;;;;;;;4.68;3.75;;;8.50;99.90;;;;;;4918290;29;20047;-79
2022/09/30 00:35:16;;;;;;;6.00;4.07;;;8.30;99.90;;;;;;4918309;29;20552;-78
2022/09/30 00:37:42;;;;;;;4.88;4.30;;;7.80;99.90;;;;;;4918144;29;20044;-78
2022/09/30 00:40:10;;;;;;;5.50;4.47;;;7.80;99.90;;;;;;4918113;29;20056;-78
2022/09/30 00:42:39;;;;;;;4.38;3.90;;;7.80;99.90;;;;;;4918101;29;20070;-78
2022/09/30 00:45:09;;;;;;;6.68;4.63;;;8.00;99.90;;;;;;4917915;29;20055;-78
2022/09/30 00:47:52;;;;;;;5.22;4.65;;;7.80;99.90;;;;;;4918017;29;20092;-78
2022/09/30 00:50:35;;;;;;;6.63;4.97;;;7.80;99.90;;;;;;4916520;29;20172;-79
2022/09/30 00:53:15;;;;;;;8.88;4.63;;;7.80;99.90;;;;;;4901294;29;20063;-79
2022/09/30 00:55:56;;;;;;;5.05;4.55;;;7.80;99.90;;;;;;4917835;29;20393;-78
2022/09/30 00:58:29;;;;;;;5.35;4.45;;;7.80;99.90;;;;;;4918222;29;20472;-78
2022/09/30 01:00:58;;;;;;;5.32;4.80;;;7.80;99.90;;;;;;4916788;29;20052;-78
2022/09/30 01:03:24;;;;;;;6.47;4.82;;;7.70;99.90;;;;;;4917846;29;20051;-79
2022/09/30 01:05:51;;;;;;;5.60;4.88;;;7.70;99.90;;;;;;4917930;29;20075;-80
2022/09/30 01:08:19;;;;;;;6.32;4.55;;;7.70;99.90;;;;;;4916687;29;20048;-80
2022/09/30 01:10:45;;;;;;;5.75;5.13;;;7.70;99.90;;;;;;4917512;29;20516;-80
2022/09/30 01:13:13;;;;;;;5.50;4.75;;;7.60;99.90;;;;;;4917866;29;20040;-80
2022/09/30 01:15:54;;;;;;;5.68;4.95;;;7.60;99.90;;;;;;4917718;29;20076;-80
2022/09/30 01:18:30;;;;;;;6.30;4.88;;;7.60;99.90;;;;;;4917751;29;20054;-80
2022/09/30 01:21:39;;;;;;;6.93;5.35;;;7.60;99.90;;;;;;4917574;29;20468;-80
2022/09/30 01:24:26;;;;;;;5.05;4.55;;;7.60;99.90;;;;;;4917576;29;20083;-80
2022/09/30 01:27:07;;;;;;;8.00;5.32;;;7.60;99.90;;;;;;4917538;29;20055;-80
2022/09/30 01:30:00;;;;;;;5.53;5.03;;;7.70;99.90;;;;;;4918036;29;20457;-80
2022/09/30 01:32:44;;;;;;;7.13;6.15;;;7.60;99.90;;;;;;4916464;29;20044;-80
2022/09/30 01:35:17;;;;;;;5.30;4.80;;;8.00;99.90;;;;;;4917602;29;20051;-80
2022/09/30 01:38:08;;;;;;;6.18;4.97;;;7.60;99.90;;;;;;4917607;29;20052;-80
2022/09/30 01:41:27;;;;;;;7.75;5.47;;;7.60;99.90;;;;;;4916033;29;20060;-81
2022/09/30 01:44:28;;;;;;;6.70;4.82;;;8.10;99.90;;;;;;4908047;29;20056;-80
2022/09/30 01:47:00;;;;;;;6.38;5.55;;;7.60;99.90;;;;;;4905943;29;20509;-80
2022/09/30 01:49:32;;;;;;;7.07;5.95;;;7.50;99.90;;;;;;4917597;29;20445;-80
2022/09/30 01:52:28;;;;;;;7.13;5.30;;;7.60;99.90;;;;;;4916304;29;20489;-80
2022/09/30 01:55:30;;;;;;;7.45;5.50;;;7.60;99.90;;;;;;4908821;29;20106;-81
2022/09/30 01:58:00;;;;;;;6.70;5.95;;;7.60;99.90;;;;;;4917510;29;20055;-80
2022/09/30 02:00:27;;;;;;;8.50;6.00;;;7.60;99.90;;;;;;4917130;29;20052;-81
2022/09/30 02:03:00;;;;;;;8.37;6.00;;;7.60;99.90;;;;;;4917163;29;20362;-80
2022/09/30 02:05:36;;;;;;;10.00;6.43;;;7.60;99.90;;;;;;4917214;29;20037;-80
2022/09/30 02:08:08;;;;;;;7.43;5.80;;;7.60;99.90;;;;;;4917526;29;20126;-80
2022/09/30 02:10:43;;;;;;;8.43;5.88;;;7.30;99.90;;;;;;4917189;29;20058;-80
2022/09/30 02:13:19;;;;;;;8.85;7.00;;;8.10;99.90;;;;;;4917185;29;20044;-80
2022/09/30 02:15:53;;;;;;;7.65;6.35;;;7.60;99.90;;;;;;4917144;29;20043;-80
2022/09/30 02:18:38;;;;;;;7.47;5.88;;;7.50;99.90;;;;;;4917117;29;20044;-80
2022/09/30 02:21:06;;;;;;;7.22;5.82;;;7.50;99.90;;;;;;4915989;29;20500;-80
2022/09/30 02:23:39;;;;;;;8.95;7.22;;;7.50;99.90;;;;;;4916987;29;20461;-80
2022/09/30 02:26:11;;;;;;;9.93;5.75;;;7.40;99.90;;;;;;4916754;29;20477;-80
2022/09/30 02:28:52;;;;;;;6.95;5.05;;;7.30;99.90;;;;;;4917384;29;20052;-79
2022/09/30 02:31:22;;;;;;;7.32;5.22;;;7.30;99.90;;;;;;4917161;29;20417;-80
2022/09/30 02:34:04;;;;;;;5.85;5.18;;;7.20;99.90;;;;;;4920301;29;20056;-77
2022/09/30 02:36:43;;;;;;;5.55;4.30;;;7.40;99.90;;;;;;4920459;29;20100;-78
2022/09/30 02:39:35;;;;;;;7.55;6.15;;;7.10;99.90;;;;;;4920185;29;20055;-77
2022/09/30 02:42:11;;;;;;;8.82;5.63;;;7.10;99.90;;;;;;4916397;29;20058;-78
2022/09/30 02:44:37;;;;;;;6.35;5.70;;;7.10;99.90;;;;;;4920176;29;20098;-78
2022/09/30 02:47:20;;;;;;;8.35;5.55;;;7.10;99.90;;;;;;4920153;29;20048;-77
2022/09/30 02:49:54;;;;;;;6.63;5.13;;;7.10;99.90;;;;;;4920450;29;20257;-77
2022/09/30 02:52:26;;;;;;;6.07;5.47;;;7.00;99.90;;;;;;4920344;29;20094;-78
2022/09/30 02:55:13;;;;;;;5.82;5.22;;;7.00;99.90;;;;;;4920156;29;20103;-79
2022/09/30 02:57:42;;;;;;;7.32;5.43;;;7.00;99.90;;;;;;4920041;29;20048;-78
2022/09/30 03:00:08;;;;;;;6.78;5.32;;;7.00;99.90;;;;;;4919911;29;20511;-78
2022/09/30 03:02:34;;;;;;;6.27;5.40;;;6.90;99.90;;;;;;4919841;29;20063;-78
2022/09/30 03:05:00;;;;;;;11.75;6.03;;;6.90;99.90;;;;;;4919724;29;20052;-78
2022/09/30 03:07:26;;;;;;;5.63;4.47;;;6.80;99.90;;;;;;4919840;29;20096;-78
2022/09/30 03:09:57;;;;;;;5.63;4.65;;;7.10;99.90;;;;;;4919748;29;20131;-77
2022/09/30 03:12:54;;;;;;;7.72;4.75;;;6.70;99.90;;;;;;4919775;29;20510;-78
2022/09/30 03:15:52;;;;;;;6.32;5.05;;;6.70;99.90;;;;;;4919830;29;20080;-77
2022/09/30 03:18:51;;;;;;;5.85;5.20;;;6.70;99.90;;;;;;4919738;29;20477;-78
2022/09/30 03:21:48;;;;;;;5.97;5.07;;;6.70;99.90;;;;;;4919928;29;20063;-78
2022/09/30 03:24:42;;;;;;;6.57;5.68;;;6.70;99.90;;;;;;4908210;29;20052;-78
2022/09/30 03:27:11;;;;;;;6.13;5.07;;;6.70;99.90;;;;;;4917274;29;20062;-77
2022/09/30 03:29:52;;;;;;;6.15;5.18;;;6.60;99.90;;;;;;4919414;29;20107;-78
2022/09/30 03:32:30;;;;;;;6.60;5.03;;;6.60;99.90;;;;;;4919567;29;20044;-78
2022/09/30 03:35:05;;;;;;;6.10;5.28;;;6.60;99.90;;;;;;4919260;29;20060;-78
2022/09/30 03:37:49;;;;;;;6.07;5.15;;;6.50;99.90;;;;;;4919850;29;20079;-78
2022/09/30 03:40:29;;;;;;;5.75;5.15;;;6.50;99.90;;;;;;4919598;29;20064;-77
2022/09/30 03:43:14;;;;;;;7.55;5.35;;;6.50;99.90;;;;;;4919094;29;20052;-78
2022/09/30 03:46:06;;;;;;;7.38;6.18;;;6.50;99.90;;;;;;4919363;29;20084;-78
2022/09/30 03:48:35;;;;;;;6.20;5.55;;;6.50;99.90;;;;;;4919548;29;20072;-77
2022/09/30 03:51:02;;;;;;;6.60;5.82;;;6.50;99.90;;;;;;4918142;29;20040;-77
2022/09/30 03:53:28;;;;;;;6.72;5.65;;;6.40;99.90;;;;;;4918917;29;20496;-78
2022/09/30 03:55:53;;;;;;;6.30;5.15;;;6.40;99.90;;;;;;4918979;29;20044;-78
2022/09/30 03:58:24;;;;;;;9.35;6.28;;;6.40;99.90;;;;;;4919142;29;20507;-78
2022/09/30 04:00:53;;;;;;;6.97;5.93;;;6.70;99.90;;;;;;4918903;29;20052;-77
2022/09/30 04:03:20;;;;;;;7.88;5.88;;;6.50;99.90;;;;;;4918817;29;20091;-78
2022/09/30 04:05:46;;;;;;;6.60;5.85;;;6.30;99.90;;;;;;4918765;29;20044;-78
2022/09/30 04:08:13;;;;;;;8.07;5.88;;;6.40;99.90;;;;;;4918681;29;20460;-78
2022/09/30 04:10:40;;;;;;;7.25;5.55;;;6.60;99.90;;;;;;4917786;29;20047;-79
2022/09/30 04:13:06;;;;;;;7.38;5.80;;;6.30;99.90;;;;;;4918948;29;20041;-78
2022/09/30 04:15:32;;;;;;;7.13;6.23;;;6.40;99.90;;;;;;4918599;29;20040;-77
2022/09/30 04:17:58;;;;;;;9.10;7.17;;;6.30;99.90;;;;;;4918571;29;20047;-77
2022/09/30 04:20:24;;;;;;;9.10;6.10;;;6.40;99.90;;;;;;4918508;29;20056;-77
2022/09/30 04:22:50;;;;;;;10.50;6.38;;;6.30;99.90;;;;;;4918405;29;20054;-78
2022/09/30 04:25:16;;;;;;;9.30;7.10;;;6.30;99.90;;;;;;4918720;29;20131;-77
2022/09/30 04:27:41;;;;;;;6.90;5.82;;;6.30;99.90;;;;;;4917479;29;20072;-77
2022/09/30 04:30:07;;;;;;;7.03;5.72;;;6.30;99.90;;;;;;4918391;29;20132;-79
2022/09/30 04:32:33;;;;;;;7.82;6.18;;;6.30;99.90;;;;;;4918316;29;20401;-79
2022/09/30 04:34:58;;;;;;;7.45;5.85;;;6.30;99.90;;;;;;4916963;29;20047;-79
2022/09/30 04:37:24;;;;;;;9.25;6.35;;;6.80;99.90;;;;;;4918301;29;20052;-79
2022/09/30 04:39:49;;;;;;;7.05;5.72;;;6.20;99.90;;;;;;4918104;29;20100;-79
2022/09/30 04:42:17;;;;;;;7.20;6.10;;;6.20;99.90;;;;;;4918104;29;20044;-80
2022/09/30 04:44:42;;;;;;;7.43;6.25;;;6.20;99.90;;;;;;4901681;29;20397;-79
2022/09/30 04:47:08;;;;;;;6.63;5.75;;;6.20;99.90;;;;;;4917970;29;20050;-79
2022/09/30 04:49:34;;;;;;;8.10;6.65;;;6.20;99.90;;;;;;4918315;29;20052;-79
2022/09/30 04:52:00;;;;;;;6.78;5.85;;;6.20;99.90;;;;;;4917271;29;20051;-79
2022/09/30 04:54:25;;;;;;;7.97;6.22;;;6.20;99.90;;;;;;4918611;29;20441;-79
2022/09/30 04:56:51;;;;;;;11.75;6.47;;;6.10;99.90;;;;;;4918219;29;20040;-79
2022/09/30 04:59:16;;;;;;;9.13;7.25;;;6.10;99.90;;;;;;4918267;29;20131;-79
2022/09/30 05:01:43;;;;;;;9.35;6.50;;;6.10;99.90;;;;;;4918112;29;20071;-80
2022/09/30 05:04:11;;;;;;;7.65;5.88;;;6.10;99.90;;;;;;4918193;29;20052;-79
2022/09/30 05:06:39;;;;;;;12.32;6.65;;;6.10;99.90;;;;;;4916613;29;20051;-79
2022/09/30 05:09:05;;;;;;;11.02;7.43;;;6.00;99.90;;;;;;4916779;29;20047;-80
2022/09/30 05:11:31;;;;;;;22.70;7.25;;;6.00;99.90;;;;;;4917710;29;20041;-80
2022/09/30 05:13:57;;;;;;;8.00;6.47;;;5.90;99.90;;;;;;4916926;29;20055;-80
2022/09/30 05:16:23;;;;;;;7.50;6.65;;;5.90;99.90;;;;;;4917539;29;20040;-81
2022/09/30 05:18:48;;;;;;;8.68;7.38;;;5.90;99.90;;;;;;4916516;29;20108;-78
2022/09/30 05:21:16;;;;;;;7.70;6.03;;;5.90;99.90;;;;;;4917574;29;20091;-79
2022/09/30 05:23:42;;;;;;;7.82;6.03;;;5.90;99.90;;;;;;4918041;29;20091;-78
2022/09/30 05:26:08;;;;;;;37.13;9.57;;;5.80;99.90;;;;;;4917496;29;20106;-78
2022/09/30 05:28:33;;;;;;;10.50;7.30;;;5.80;99.90;;;;;;4917516;29;20603;-80
2022/09/30 05:31:02;;;;;;;8.90;6.82;;;5.70;99.90;;;;;;4917538;29;20087;-78
2022/09/30 05:33:28;;;;;;;38.20;9.57;;;5.70;99.90;;;;;;4917655;29;20103;-78
2022/09/30 05:35:57;;;;;;;7.72;6.32;;;5.70;99.90;;;;;;4917352;29;20051;-79
2022/09/30 05:38:23;;;;;;;7.32;6.20;;;5.70;99.90;;;;;;4917818;29;20048;-79
2022/09/30 05:40:48;;;;;;;8.27;6.03;;;5.60;99.90;;;;;;4917672;29;20056;-83
2022/09/30 05:43:14;;;;;;;8.00;7.00;;;5.50;99.90;;;;;;4917638;29;20114;-79
2022/09/30 05:45:39;;;;;;;7.15;5.90;;;5.50;99.90;;;;;;4917400;29;20040;-80
2022/09/30 05:48:06;;;;;;;8.55;6.80;;;5.50;99.90;;;;;;4917380;29;20179;-80
2022/09/30 05:50:32;;;;;;;7.75;6.55;;;5.50;99.90;;;;;;4917223;29;20059;-80
2022/09/30 05:52:59;;;;;;;8.75;6.45;;;5.50;99.90;;;;;;4917394;29;20048;-79
2022/09/30 05:55:24;;;;;;;8.75;6.40;;;5.50;99.90;;;;;;4917261;29;20123;-80
2022/09/30 05:57:51;;;;;;;10.07;7.65;;;5.60;99.90;;;;;;4917325;29;20597;-79
2022/09/30 06:00:17;;;;;;;11.02;6.57;;;5.50;99.90;;;;;;4917285;29;20131;-79
2022/09/30 06:02:43;;;;;;;10.70;7.57;;;5.50;99.90;;;;;;4917279;29;20048;-79
2022/09/30 06:05:10;;;;;;;9.50;6.80;;;5.60;99.90;;;;;;4917241;29;20051;-80
2022/09/30 06:07:37;;;;;;;8.02;6.43;;;5.50;99.90;;;;;;4919212;29;20060;-79
2022/09/30 06:10:06;;;;;;;8.27;6.65;;;5.60;99.90;;;;;;4920453;29;20040;-81
2022/09/30 06:12:35;;;;;;;9.07;7.30;;;5.60;99.90;;;;;;4920063;29;20040;-82
2022/09/30 06:15:01;;;;;;;9.98;7.50;;;5.60;99.90;;;;;;4921063;29;20059;-80
2022/09/30 06:17:27;;;;;;;8.75;7.20;;;5.60;99.90;;;;;;4919595;29;20055;-79
2022/09/30 06:19:55;;;;;;;8.85;7.07;;;5.50;99.90;;;;;;4920480;29;20504;-82
2022/09/30 06:22:21;;;;;;;8.32;6.78;;;5.60;99.90;;;;;;4920743;29;20552;-78
2022/09/30 06:24:47;;;;;;;10.02;7.80;;;5.70;99.90;;;;;;4920426;29;20044;-80
2022/09/30 06:27:13;;;;;;;10.40;8.60;;;5.70;99.90;;;;;;4920208;29;20473;-79
2022/09/30 06:29:38;;;;;;;11.55;9.25;;;5.70;99.90;;;;;;4920568;29;20127;-80
2022/09/30 06:32:05;;;;;;;9.85;7.35;;;5.70;99.90;;;;;;4920469;29;20043;-79
2022/09/30 06:34:31;;;;;;;;;;;5.70;99.90;;;;;;4919403;29;20428;-79
2022/09/30 06:36:56;;;;;;;11.45;8.38;;;6.30;99.90;;;;;;4918797;29;19923;-79
2022/09/30 06:39:22;;;;;;;11.90;8.55;;;5.80;99.90;;;;;;4920211;29;20091;-80
2022/09/30 06:41:48;;;;;;;12.77;8.65;;;5.80;99.90;;;;;;4919352;29;20050;-79
2022/09/30 06:44:13;;;;;;;13.73;8.20;;;5.90;99.90;;;;;;4920388;29;20461;-79
2022/09/30 06:46:39;;;;;;;13.48;10.02;;;5.90;99.90;;;;;;4920220;29;20044;-79
2022/09/30 06:49:06;;;;;;;12.98;8.95;;;6.00;99.90;;;;;;4920163;29;20080;-80
2022/09/30 06:51:32;;;;;;;;;;;6.10;99.90;;;;;;4920561;29;20063;-79
2022/09/30 06:53:58;;;;;;;16.52;12.05;;;6.10;99.90;;;;;;4919126;29;19923;-80
2022/09/30 06:56:24;;;;;;;13.65;10.10;;;6.30;99.90;;;;;;4920146;29;20059;-80
2022/09/30 06:58:50;;;;;;;15.60;11.35;;;6.30;99.90;;;;;;4919902;29;20485;-80
2022/09/30 07:01:16;;;;;;;14.50;10.25;;;7.00;99.90;;;;;;4919015;29;20054;-80
2022/09/30 07:03:44;;;;;;;17.27;10.77;;;6.60;99.90;;;;;;4919927;29;20449;-80
2022/09/30 07:06:11;;;;;;;15.98;11.15;;;6.70;99.90;;;;;;4919810;29;20048;-80
2022/09/30 07:08:37;;;;;;;14.18;11.27;;;6.80;99.90;;;;;;4919800;29;20051;-79
2022/09/30 07:11:13;;;;;;;14.95;10.77;;;7.00;99.90;;;;;;4919729;29;20048;-80
2022/09/30 07:13:44;;;;;;;17.35;12.68;;;7.10;99.90;;;;;;4918668;29;20412;-80
2022/09/30 07:16:11;;;;;;;14.23;11.05;;;7.30;99.90;;;;;;4919799;29;20076;-79
2022/09/30 07:18:37;;;;;;;14.27;10.83;;;7.80;99.90;;;;;;4919518;29;20058;-80
2022/09/30 07:21:03;;;;;;;13.60;11.23;;;7.60;99.90;;;;;;4919659;29;20083;-80
2022/09/30 07:23:30;;;;;;;12.97;10.53;;;7.70;99.90;;;;;;4919767;29;20416;-80
2022/09/30 07:26:03;;;;;;;16.00;11.13;;;7.80;99.90;;;;;;4919485;29;20123;-80
2022/09/30 07:28:34;;;;;;;14.85;10.30;;;8.00;99.90;;;;;;4919550;29;20536;-80
2022/09/30 07:31:05;;;;;;;13.15;10.25;;;8.10;99.90;;;;;;4919413;29;20056;-80
2022/09/30 07:33:32;;;;;;;12.75;10.57;;;8.20;99.90;;;;;;4919404;29;20088;-80
2022/09/30 07:35:59;;;;;;;11.77;8.68;;;8.40;99.90;;;;;;4919897;29;20080;-81
2022/09/30 07:38:28;;;;;;;10.45;8.57;;;8.50;99.90;;;;;;4918090;29;20048;-80
2022/09/30 07:41:06;;;;;;;10.50;9.35;;;8.60;99.90;;;;;;4918894;29;20082;-80
2022/09/30 07:43:37;;;;;;;10.63;8.70;;;8.70;99.90;;;;;;4919217;29;20094;-81
2022/09/30 07:46:13;;;;;;;12.98;9.38;;;8.90;99.90;;;;;;4919138;29;20044;-80
2022/09/30 07:48:44;;;;;;;9.65;7.63;;;9.00;99.90;;;;;;4919101;29;20055;-81
2022/09/30 07:51:12;;;;;;;12.70;7.88;;;9.10;99.90;;;;;;4919257;29;20110;-80
2022/09/30 07:53:39;;;;;;;11.55;8.30;;;9.20;99.90;;;;;;4918992;29;20044;-80
2022/09/30 07:56:05;;;;;;;;;;;9.30;99.90;;;;;;4919355;29;20134;-80
2022/09/30 07:58:32;;;;;;;10.52;7.30;;;9.40;99.90;;;;;;4918962;29;19930;-80
2022/09/30 08:00:57;;;;;;;10.30;7.75;;;9.50;99.90;;;;;;4918921;29;20088;-81
2022/09/30 08:03:23;;;;;;;10.75;8.05;;;9.60;99.90;;;;;;4918859;29;20056;-81
2022/09/30 08:05:48;;;;;;;9.43;7.85;;;9.70;99.90;;;;;;4918718;29;20048;-81
2022/09/30 08:08:16;;;;;;;8.77;7.78;;;9.80;99.90;;;;;;4919009;29;20044;-81
2022/09/30 08:10:41;;;;;;;9.23;7.65;;;9.90;99.90;;;;;;4918525;29;20397;-80
2022/09/30 08:13:08;;;;;;;9.25;7.60;;;9.90;99.90;;;;;;4918895;29;20055;-81
2022/09/30 08:15:34;;;;;;;9.85;8.45;;;10.00;99.90;;;;;;4918580;29;20056;-80
2022/09/30 08:18:00;;;;;;;10.70;7.15;;;10.10;99.90;;;;;;4918718;29;20048;-80
2022/09/30 08:20:26;;;;;;;10.10;7.68;;;10.20;99.90;;;;;;4918830;29;20493;-80
2022/09/30 08:22:53;;;;;;;8.27;7.25;;;10.20;99.90;;;;;;4918438;29;20043;-81
2022/09/30 08:25:18;;;;;;;;;;;10.40;99.90;;;;;;4919086;29;20047;-81
2022/09/30 08:27:44;;;;;;;9.23;6.97;;;10.50;99.90;;;;;;4918426;29;20380;-81
2022/09/30 08:30:11;;;;;;;9.27;6.90;;;10.60;99.90;;;;;;4917878;29;20099;-81
2022/09/30 08:32:37;;;;;;;8.15;6.25;;;10.70;99.90;;;;;;4918346;29;20066;-82
2022/09/30 08:35:03;;;;;;;7.90;6.00;;;10.80;99.90;;;;;;4918315;29;20052;-81
2022/09/30 08:37:28;;;;;;;9.23;5.88;;;10.90;99.90;;;;;;4917274;29;20055;-81
2022/09/30 08:39:54;;;;;;;9.18;6.40;;;11.00;99.90;;;;;;4918188;29;20055;-81
2022/09/30 08:42:25;;;;;;;7.40;6.57;;;11.60;99.90;;;;;;4918156;29;20051;-81
2022/09/30 08:44:51;;;;;;;8.82;6.00;;;11.20;99.90;;;;;;4918134;29;20052;-80
2022/09/30 08:47:40;;;;;;;6.68;5.40;;;11.30;99.90;;;;;;4918052;29;20044;-80
2022/09/30 08:50:11;;;;;;;7.30;6.35;;;11.40;99.90;;;;;;4917209;29;20092;-81
2022/09/30 08:52:43;;;;;;;6.57;5.00;;;11.60;99.90;;;;;;4917946;29;20088;-81
2022/09/30 08:55:19;;;;;;;7.32;5.68;;;11.70;99.90;;;;;;4918033;29;20056;-81
2022/09/30 08:57:45;;;;;;;6.85;5.28;;;11.80;99.90;;;;;;4918219;29;20044;-81
2022/09/30 09:00:14;;;;;;;7.25;5.90;;;11.90;99.90;;;;;;4917634;29;20047;-81
2022/09/30 09:03:02;;;;;;;6.25;5.60;;;12.00;99.90;;;;;;4917749;29;20044;-81
2022/09/30 09:05:56;;;;;;;7.78;5.78;;;12.10;99.90;;;;;;4917812;29;20052;-86
2022/09/30 09:08:40;;;;;;;7.05;5.55;;;12.20;99.90;;;;;;4918062;29;20095;-83
2022/09/30 09:11:14;;;;;;;6.50;4.95;;;12.30;99.90;;;;;;4917987;29;20048;-84
2022/09/30 09:13:56;;;;;;;6.85;6.15;;;12.40;99.90;;;;;;4901056;29;20099;-82
2022/09/30 09:16:44;;;;;;;7.00;5.93;;;12.50;99.90;;;;;;4917533;29;20047;-81
2022/09/30 09:19:14;;;;;;;7.15;6.18;;;12.60;99.90;;;;;;4900858;29;20512;-87
2022/09/30 09:21:59;;;;;;;8.02;5.95;;;12.60;99.90;;;;;;4901370;29;20064;-86
2022/09/30 09:24:47;;;;;;;8.20;6.97;;;13.10;99.90;;;;;;4916693;29;20052;-82
2022/09/30 09:27:20;;;;;;;9.25;6.63;;;13.00;99.90;;;;;;4916396;29;20123;-79
2022/09/30 09:30:06;;;;;;;7.88;6.18;;;13.00;99.90;;;;;;4917726;29;20066;-83
2022/09/30 09:32:32;;;;;;;7.65;6.22;;;13.10;99.90;;;;;;4916528;29;20051;-76
2022/09/30 09:35:05;;;;;;;8.55;6.90;;;13.20;99.90;;;;;;4917435;29;20055;-79
2022/09/30 09:40:44;;;;;;;6.85;6.07;;;13.50;99.90;;;;;;4935892;29;20071;-82
2022/09/30 09:43:38;;;;;;;7.40;5.97;;;13.60;99.90;;;;;;4938378;29;20055;-83
2022/09/30 09:46:22;;;;;;;7.20;5.47;;;13.70;99.90;;;;;;4939625;29;20052;-83
2022/09/30 09:49:09;;;;;;;5.93;5.25;;;13.70;99.90;;;;;;4938861;29;20511;-85
2022/09/30 09:51:41;;;;;;;8.07;6.15;;;13.90;99.90;;;;;;4939850;29;20389;-83
2022/09/30 09:54:11;;;;;;;7.05;5.72;;;13.90;99.90;;;;;;4939910;29;20102;-81
2022/09/30 09:56:36;;;;;;;7.80;5.82;;;14.10;99.90;;;;;;4931007;29;20044;-85
2022/09/30 09:59:07;;;;;;;6.80;6.20;;;14.10;99.90;;;;;;4920048;29;20124;-82
2022/09/30 10:01:36;;;;;;;6.78;6.07;;;14.10;99.90;;;;;;4920933;29;20036;-85
2022/09/30 10:04:25;;;;;;;8.43;6.30;;;14.20;99.90;;;;;;4920051;29;20139;-85
2022/09/30 10:06:51;;;;;;;7.53;6.78;;;14.20;99.90;;;;;;4920020;29;20055;-83
2022/09/30 10:09:31;;;;;;;7.93;7.15;;;14.30;99.90;;;;;;4935695;29;20091;-84
2022/09/30 10:12:05;;;;;;;8.13;7.32;;;14.40;99.90;;;;;;4919929;29;20043;-88
2022/09/30 10:14:35;;;;;;;9.27;7.63;;;14.50;99.90;;;;;;4920899;29;20052;-83
2022/09/30 10:17:16;;;;;;;10.55;7.88;;;14.60;99.90;;;;;;4920732;29;20046;-84
2022/09/30 10:19:52;;;;;;;7.70;7.00;;;14.70;99.90;;;;;;4920096;29;20099;-83
2022/09/30 10:22:19;;;;;;;9.02;8.13;;;14.70;99.90;;;;;;4919851;29;20051;-83
2022/09/30 10:24:47;;;;;;;10.25;9.23;;;14.80;99.90;;;;;;4920736;29;20143;-83
2022/09/30 10:27:29;;;;;;;10.60;9.57;;;14.90;99.90;;;;;;4903764;29;20051;-83
2022/09/30 10:29:55;;;;;;;10.95;9.38;;;14.90;99.90;;;;;;4919623;29;20470;-80
2022/09/30 10:32:22;;;;;;;10.63;9.53;;;15.00;99.90;;;;;;4920527;29;20135;-83
2022/09/30 10:35:02;;;;;;;10.63;9.52;;;15.00;99.90;;;;;;4919659;29;20067;-82
2022/09/30 10:37:28;;;;;;;10.35;9.25;;;15.10;99.90;;;;;;4919280;29;20104;-81
2022/09/30 10:40:01;;;;;;;10.57;9.27;;;15.20;99.90;;;;;;4920174;29;20508;-79
2022/09/30 10:42:30;;;;;;;12.15;9.40;;;15.10;99.90;;;;;;4919406;29;20055;-77
2022/09/30 10:45:15;;;;;;;10.65;8.85;;;15.50;99.90;;;;;;4920110;29;20083;-77
2022/09/30 10:47:47;;;;;;;10.38;8.70;;;15.30;99.90;;;;;;4920643;29;20044;-77
2022/09/30 10:50:19;;;;;;;10.05;8.98;;;15.40;99.90;;;;;;4920183;29;20131;-77
2022/09/30 10:52:57;;;;;;;10.00;8.98;;;15.40;99.90;;;;;;4919609;29;20425;-77
2022/09/30 10:55:33;;;;;;;12.40;8.85;;;15.40;99.90;;;;;;4920031;29;20095;-78
2022/09/30 10:58:22;;;;;;;8.68;7.78;;;15.50;99.90;;;;;;4919987;29;20050;-83
2022/09/30 11:00:53;;;;;;;8.35;7.35;;;15.60;99.90;;;;;;4920129;29;20058;-78
2022/09/30 11:03:31;;;;;;;9.75;7.75;;;15.60;99.90;;;;;;4920070;29;20048;-80
2022/09/30 11:05:59;;;;;;;8.25;7.30;;;15.50;99.90;;;;;;4919951;29;20044;-80
2022/09/30 11:08:27;;;;;;;8.82;6.78;;;15.50;99.90;;;;;;4919778;29;20123;-78
2022/09/30 11:11:04;;;;;;;7.82;7.03;;;15.80;99.90;;;;;;4919431;29;20548;-77
2022/09/30 11:13:48;;;;;;;8.05;6.80;;;15.60;99.90;;;;;;4919928;29;20061;-77
2022/09/30 11:16:32;;;;;;;8.65;7.43;;;15.60;99.90;;;;;;4919683;29;20055;-76
2022/09/30 11:19:06;;;;;;;7.88;7.05;;;15.70;99.90;;;;;;4924100;29;20048;-84
2022/09/30 11:21:45;;;;;;;8.77;7.65;;;15.70;99.90;;;;;;4936777;29;20043;-82
2022/09/30 11:24:14;;;;;;;10.65;7.60;;;15.80;99.90;;;;;;4919472;29;20095;-85
2022/09/30 11:26:58;;;;;;;8.55;7.50;;;15.90;99.90;;;;;;4931962;29;20051;-83
2022/09/30 11:29:42;;;;;;;9.13;7.43;;;16.00;99.90;;;;;;4937353;29;20054;-85
2022/09/30 11:32:31;;;;;;;11.90;8.70;;;16.10;99.90;;;;;;4937949;29;20048;-79
2022/09/30 11:35:16;;;;;;;9.48;8.43;;;16.10;99.90;;;;;;4938441;29;20442;-83
2022/09/30 11:38:32;;;;;;;11.98;9.00;;;16.20;99.90;;;;;;4936206;29;20044;-83
2022/09/30 11:41:15;;;;;;;11.00;9.77;;;16.30;99.90;;;;;;4937946;29;20099;-83
2022/09/30 11:44:02;;;;;;;11.13;10.02;;;16.30;99.90;;;;;;4937836;29;20058;-84
2022/09/30 11:46:48;;;;;;;15.40;11.40;;;16.30;99.90;;;;;;4936496;29;20051;-82
2022/09/30 11:49:56;;;;;;;12.23;10.63;;;16.40;99.90;;;;;;4937566;29;20052;-83
2022/09/30 11:52:40;;;;;;;11.80;10.60;;;16.40;99.90;;;;;;4926108;29;20056;-83
2022/09/30 11:55:30;;;;;;;11.05;9.75;;;16.40;99.90;;;;;;4937514;29;20050;-83
2022/09/30 11:58:08;;;;;;;10.40;9.30;;;16.30;99.90;;;;;;4937840;29;20050;-83
2022/09/30 12:00:39;;;;;;;11.07;9.98;;;16.30;99.90;;;;;;4937901;29;20047;-83
2022/09/30 12:03:09;;;;;;;13.32;10.82;;;16.30;99.90;;;;;;4937887;29;20048;-83
2022/09/30 12:05:46;;;;;;;11.38;10.20;;;16.30;99.90;;;;;;4937091;29;20074;-83
2022/09/30 12:08:18;;;;;;;11.77;10.57;;;16.40;99.90;;;;;;4937079;29;20139;-83
2022/09/30 12:10:52;;;;;;;12.40;10.18;;;16.50;99.90;;;;;;4937379;29;20055;-84
2022/09/30 12:13:36;;;;;;;10.40;9.23;;;16.60;99.90;;;;;;4936122;29;20051;-82
2022/09/30 12:16:03;;;;;;;11.32;10.13;;;16.60;99.90;;;;;;4937555;29;20040;-82
2022/09/30 12:18:36;;;;;;;12.43;10.52;;;16.60;99.90;;;;;;4936652;29;20134;-84
2022/09/30 12:21:36;;;;;;;11.98;10.02;;;16.40;99.90;;;;;;4936593;29;20099;-82
2022/09/30 12:24:13;;;;;;;10.20;9.20;;;16.50;99.90;;;;;;4936923;29;20051;-81
2022/09/30 12:26:39;;;;;;;;;;;16.60;99.90;;;;;;4937880;29;20044;-83
2022/09/30 12:32:15;;;;;;;9.50;8.55;;;16.80;99.90;;;;;;4936441;29;20077;-82
2022/09/30 12:34:43;;;;;;;9.38;8.35;;;16.90;99.90;;;;;;4936579;29;20185;-81
2022/09/30 12:37:27;;;;;;;7.93;6.70;;;17.70;99.90;;;;;;4937266;29;20054;-81
2022/09/30 12:40:16;;;;;;;8.32;6.50;;;17.10;99.90;;;;;;4937441;29;20086;-79
2022/09/30 12:42:53;;;;;;;6.90;6.20;;;17.00;99.90;;;;;;4937885;29;20126;-85
2022/09/30 12:45:38;;;;;;;7.75;6.63;;;17.00;99.90;;;;;;4935906;29;20150;-79
2022/09/30 12:48:07;;;;;;;8.07;7.28;;;17.10;99.90;;;;;;4937009;29;20059;-84
2022/09/30 12:50:46;;;;;;;8.90;7.90;;;17.40;99.90;;;;;;4920402;29;20059;-85
2022/09/30 12:53:17;;;;;;;8.90;8.10;;;16.80;99.90;;;;;;4927104;29;20507;-82
2022/09/30 12:55:43;;;;;;;9.82;7.97;;;16.90;99.90;;;;;;4931477;29;20447;-82
2022/09/30 12:58:20;;;;;;;9.13;8.23;;;16.80;99.90;;;;;;4936436;29;20066;-83
2022/09/30 13:01:20;;;;;;;11.48;7.60;;;17.00;99.90;;;;;;4927973;29;20047;-79
2022/09/30 13:04:15;;;;;;;8.20;7.40;;;16.70;99.90;;;;;;4935555;29;20407;-82
2022/09/30 13:06:44;;;;;;;7.57;6.78;;;16.60;99.90;;;;;;4935945;29;20044;-85
2022/09/30 13:09:15;;;;;;;8.60;7.78;;;16.60;99.90;;;;;;4919721;29;20087;-83
2022/09/30 13:12:04;;;;;;;9.18;8.20;;;16.70;99.90;;;;;;4934822;29;20114;-79
2022/09/30 13:14:31;;;;;;;8.55;7.70;;;16.60;99.90;;;;;;4917485;29;20412;-78
2022/09/30 13:17:06;;;;;;;8.88;7.78;;;16.70;99.90;;;;;;4917808;29;20040;-79
2022/09/30 13:19:51;;;;;;;8.40;7.28;;;16.60;99.90;;;;;;4917260;29;20044;-76
2022/09/30 13:22:17;;;;;;;8.52;7.72;;;16.50;99.90;;;;;;4917451;29;20036;-83
2022/09/30 13:25:04;;;;;;;10.97;8.63;;;16.50;99.90;;;;;;4917277;29;20206;-82
2022/09/30 13:27:38;;;;;;;9.93;8.15;;;16.50;99.90;;;;;;4900409;29;20130;-82